createdAt,value
2018-02-21T00:00:52.481Z,0.00
2018-02-21T00:02:46.947Z,0.00
2018-02-21T00:03:46.907Z,0.00
2018-02-21T00:05:41.314Z,0.00
2018-02-21T00:06:41.320Z,0.00
2018-02-21T00:08:35.723Z,0.00
2018-02-21T00:09:35.683Z,0.00
2018-02-21T00:11:30.106Z,0.00
2018-02-21T00:12:30.103Z,0.00
2018-02-21T00:14:23.548Z,0.00
2018-02-21T00:15:23.521Z,0.00
2018-02-21T00:17:18.465Z,0.00
2018-02-21T00:18:17.927Z,0.00
2018-02-21T00:20:12.345Z,0.00
2018-02-21T00:21:12.344Z,0.00
2018-02-21T00:23:07.258Z,0.00
2018-02-21T00:24:07.271Z,0.00
2018-02-21T00:26:01.100Z,0.00
2018-02-21T00:27:00.132Z,0.00
2018-02-21T00:28:54.578Z,0.00
2018-02-21T00:29:54.573Z,0.00
2018-02-21T00:31:48.976Z,0.00
2018-02-21T00:32:48.982Z,0.00
2018-02-21T00:34:42.921Z,0.00
2018-02-21T00:35:42.929Z,0.00
2018-02-21T00:37:37.317Z,0.00
2018-02-21T00:38:36.821Z,0.00
2018-02-21T00:40:31.739Z,0.00
2018-02-21T00:41:31.222Z,0.00
2018-02-21T00:43:25.618Z,0.00
2018-02-21T00:44:25.622Z,0.00
2018-02-21T00:46:20.990Z,0.00
2018-02-21T00:47:20.029Z,0.00
2018-02-21T00:49:14.465Z,0.00
2018-02-21T00:50:14.466Z,0.00
2018-02-21T00:52:09.423Z,0.00
2018-02-21T00:53:08.841Z,0.00
2018-02-21T00:55:03.787Z,0.00
2018-02-21T00:56:03.788Z,0.00
2018-02-21T00:57:58.191Z,0.00
2018-02-21T00:58:57.645Z,0.00
2018-02-21T01:00:51.592Z,0.00
2018-02-21T01:01:51.036Z,0.00
2018-02-21T01:03:44.459Z,0.00
2018-02-21T01:04:44.446Z,0.00
2018-02-21T01:06:38.867Z,0.00
2018-02-21T01:07:38.857Z,0.00
2018-02-21T01:09:34.138Z,0.00
2018-02-21T01:10:34.122Z,0.00
2018-02-21T01:12:27.556Z,0.00
2018-02-21T01:13:28.054Z,0.00
2018-02-21T01:15:21.945Z,0.00
2018-02-21T01:16:21.938Z,0.00
2018-02-21T01:18:16.304Z,0.00
2018-02-21T01:19:16.312Z,0.00
2018-02-21T01:21:09.776Z,0.00
2018-02-21T01:22:10.249Z,0.00
2018-02-21T01:24:04.144Z,0.00
2018-02-21T01:25:04.150Z,0.00
2018-02-21T01:27:00.094Z,0.00
2018-02-21T01:27:59.088Z,0.00
2018-02-21T01:29:53.009Z,0.00
2018-02-21T01:30:52.976Z,0.00
2018-02-21T01:32:47.376Z,0.00
2018-02-21T01:33:47.366Z,0.00
2018-02-21T01:35:42.800Z,0.00
2018-02-21T01:36:42.302Z,0.00
2018-02-21T01:38:36.724Z,0.00
2018-02-21T01:39:36.153Z,0.00
2018-02-21T01:41:30.567Z,0.00
2018-02-21T01:42:30.548Z,0.00
2018-02-21T01:44:25.012Z,0.00
2018-02-21T01:45:24.964Z,0.00
2018-02-21T01:47:19.924Z,0.00
2018-02-21T01:48:19.363Z,0.00
2018-02-21T01:50:12.772Z,0.00
2018-02-21T01:51:12.767Z,0.00
2018-02-21T01:53:06.201Z,0.00
2018-02-21T01:54:06.717Z,0.00
2018-02-21T01:56:00.644Z,0.00
2018-02-21T01:57:00.591Z,0.00
2018-02-21T01:58:55.535Z,0.00
2018-02-21T01:59:55.000Z,0.00
2018-02-21T02:01:49.414Z,0.00
2018-02-21T02:02:49.415Z,0.00
2018-02-21T02:04:44.358Z,0.00
2018-02-21T02:05:43.834Z,0.00
2018-02-21T02:07:37.284Z,0.00
2018-02-21T02:08:37.258Z,0.00
2018-02-21T02:10:30.656Z,0.00
2018-02-21T02:11:30.653Z,0.00
2018-02-21T02:13:24.079Z,0.00
2018-02-21T02:14:24.066Z,0.00
2018-02-21T02:16:17.481Z,0.00
2018-02-21T02:17:17.468Z,0.00
2018-02-21T02:19:10.927Z,0.00
2018-02-21T02:20:10.902Z,0.00
2018-02-21T02:22:05.324Z,0.00
2018-02-21T02:23:05.309Z,0.00
2018-02-21T02:24:58.778Z,0.00
2018-02-21T02:25:58.720Z,0.00
2018-02-21T02:27:53.103Z,0.00
2018-02-21T02:28:53.118Z,0.00
2018-02-21T02:30:47.526Z,0.00
2018-02-21T02:31:48.056Z,0.00
2018-02-21T02:33:41.933Z,0.00
2018-02-21T02:34:42.448Z,0.00
2018-02-21T02:36:36.853Z,0.00
2018-02-21T02:37:36.315Z,0.00
2018-02-21T02:39:30.759Z,0.00
2018-02-21T02:40:30.749Z,0.00
2018-02-21T02:42:24.663Z,0.00
2018-02-21T02:43:24.669Z,0.00
2018-02-21T02:45:18.597Z,0.00
2018-02-21T02:46:18.556Z,0.00
2018-02-21T02:48:13.494Z,0.00
2018-02-21T02:49:12.939Z,0.00
2018-02-21T02:51:07.877Z,0.00
2018-02-21T02:52:07.872Z,0.00
2018-02-21T02:54:01.780Z,0.00
2018-02-21T02:55:01.775Z,0.00
2018-02-21T02:56:56.717Z,0.00
2018-02-21T02:57:56.176Z,0.00
2018-02-21T02:59:51.125Z,0.00
2018-02-21T03:00:51.126Z,0.00
2018-02-21T03:02:44.013Z,0.00
2018-02-21T03:03:44.527Z,0.00
2018-02-21T03:05:38.945Z,0.00
2018-02-21T03:06:38.410Z,0.00
2018-02-21T03:08:31.798Z,0.00
2018-02-21T03:09:31.799Z,0.00
2018-02-21T03:11:26.230Z,0.00
2018-02-21T03:12:26.739Z,0.00
2018-02-21T03:14:20.635Z,0.00
2018-02-21T03:15:20.630Z,0.00
2018-02-21T03:17:16.084Z,0.00
2018-02-21T03:18:15.039Z,0.00
2018-02-21T03:20:09.449Z,0.00
2018-02-21T03:21:09.983Z,0.00
2018-02-21T03:23:03.864Z,0.00
2018-02-21T03:24:04.423Z,0.00
2018-02-21T03:25:58.263Z,0.00
2018-02-21T03:26:58.271Z,0.00
2018-02-21T03:28:51.669Z,0.00
2018-02-21T03:29:51.651Z,0.00
2018-02-21T03:31:46.076Z,0.00
2018-02-21T03:32:46.073Z,0.00
2018-02-21T03:34:40.029Z,0.00
2018-02-21T03:35:39.477Z,0.00
2018-02-21T03:37:32.912Z,0.00
2018-02-21T03:38:32.903Z,0.00
2018-02-21T03:40:27.317Z,0.00
2018-02-21T03:41:27.324Z,0.00
2018-02-21T03:43:21.750Z,0.00
2018-02-21T03:44:21.740Z,0.00
2018-02-21T03:46:16.165Z,0.00
2018-02-21T03:47:16.682Z,0.00
2018-02-21T03:49:10.582Z,0.00
2018-02-21T03:50:10.564Z,0.00
2018-02-21T03:52:05.509Z,0.00
2018-02-21T03:53:04.984Z,0.00
2018-02-21T03:54:59.916Z,0.00
2018-02-21T03:55:59.383Z,0.00
2018-02-21T03:57:53.328Z,0.00
2018-02-21T03:58:52.775Z,0.00
2018-02-21T04:00:48.143Z,0.00
2018-02-21T04:01:47.174Z,0.00
2018-02-21T04:03:41.578Z,0.00
2018-02-21T04:04:42.108Z,0.00
2018-02-21T04:06:36.016Z,0.00
2018-02-21T04:07:35.988Z,0.00
2018-02-21T04:09:30.398Z,0.00
2018-02-21T04:10:30.409Z,0.00
2018-02-21T04:12:25.841Z,0.00
2018-02-21T04:13:24.822Z,0.00
2018-02-21T04:15:18.273Z,0.00
2018-02-21T04:16:18.758Z,0.00
2018-02-21T04:18:12.693Z,0.00
2018-02-21T04:19:13.179Z,0.00
2018-02-21T04:21:07.556Z,0.00
2018-02-21T04:22:07.025Z,0.00
2018-02-21T04:24:00.973Z,0.00
2018-02-21T04:25:00.980Z,0.00
2018-02-21T04:26:53.889Z,0.00
2018-02-21T04:27:53.873Z,0.00
2018-02-21T04:29:48.293Z,0.00
2018-02-21T04:30:48.294Z,0.00
2018-02-21T04:32:42.725Z,0.00
2018-02-21T04:33:42.691Z,0.00
2018-02-21T04:35:38.068Z,0.00
2018-02-21T04:36:37.109Z,0.00
2018-02-21T04:38:32.048Z,0.00
2018-02-21T04:39:31.503Z,0.00
2018-02-21T04:41:25.462Z,0.00
2018-02-21T04:42:24.924Z,0.00
2018-02-21T04:44:19.328Z,0.00
2018-02-21T04:45:19.335Z,0.00
2018-02-21T04:47:13.764Z,0.00
2018-02-21T04:48:13.748Z,0.00
2018-02-21T04:50:08.165Z,0.00
2018-02-21T04:51:08.160Z,0.00
2018-02-21T04:53:02.100Z,0.00
2018-02-21T04:54:01.574Z,0.00
2018-02-21T04:55:55.993Z,0.00
2018-02-21T04:56:55.980Z,0.00
2018-02-21T04:58:49.364Z,0.00
2018-02-21T04:59:49.374Z,0.00
2018-02-21T05:01:43.801Z,0.00
2018-02-21T05:02:43.773Z,0.00
2018-02-21T05:04:37.229Z,0.00
2018-02-21T05:05:37.723Z,0.00
2018-02-21T05:07:31.617Z,0.00
2018-02-21T05:08:31.595Z,0.00
2018-02-21T05:10:26.054Z,0.00
2018-02-21T05:11:25.547Z,0.00
2018-02-21T05:13:19.442Z,0.00
2018-02-21T05:14:19.438Z,0.00
2018-02-21T05:16:13.853Z,0.00
2018-02-21T05:17:13.831Z,0.00
2018-02-21T05:19:08.259Z,0.00
2018-02-21T05:20:08.239Z,0.00
2018-02-21T05:22:02.693Z,0.00
2018-02-21T05:23:02.649Z,0.00
2018-02-21T05:24:57.061Z,0.00
2018-02-21T05:25:57.077Z,0.00
2018-02-21T05:27:50.526Z,0.00
2018-02-21T05:28:50.485Z,0.00
2018-02-21T05:30:44.920Z,0.00
2018-02-21T05:31:43.890Z,0.00
2018-02-21T05:33:38.834Z,0.00
2018-02-21T05:34:38.334Z,0.00
2018-02-21T05:36:31.758Z,0.00
2018-02-21T05:37:32.263Z,0.00
2018-02-21T05:39:25.158Z,0.00
2018-02-21T05:40:25.142Z,0.00
2018-02-21T05:42:19.540Z,0.00
2018-02-21T05:43:20.078Z,0.00
2018-02-21T05:45:13.974Z,0.00
2018-02-21T05:46:13.965Z,0.00
2018-02-21T05:48:07.910Z,0.00
2018-02-21T05:49:07.912Z,0.00
2018-02-21T05:51:02.299Z,0.00
2018-02-21T05:52:00.785Z,0.00
2018-02-21T05:53:55.217Z,0.00
2018-02-21T05:54:55.194Z,0.00
2018-02-21T05:56:48.584Z,0.00
2018-02-21T05:57:48.615Z,0.00
2018-02-21T05:59:42.533Z,0.00
2018-02-21T06:00:42.014Z,0.00
2018-02-21T06:02:35.950Z,0.00
2018-02-21T06:03:35.430Z,0.00
2018-02-21T06:05:29.854Z,0.00
2018-02-21T06:06:30.375Z,0.00
2018-02-21T06:08:24.222Z,0.00
2018-02-21T06:09:24.219Z,0.00
2018-02-21T06:11:18.682Z,0.00
2018-02-21T06:12:18.626Z,0.00
2018-02-21T06:14:12.576Z,0.00
2018-02-21T06:15:12.044Z,0.00
2018-02-21T06:17:05.983Z,0.00
2018-02-21T06:18:05.463Z,0.00
2018-02-21T06:20:00.392Z,0.00
2018-02-21T06:20:59.860Z,0.00
2018-02-21T06:22:54.810Z,0.00
2018-02-21T06:23:54.266Z,0.00
2018-02-21T06:25:47.700Z,0.00
2018-02-21T06:26:48.206Z,0.00
2018-02-21T06:28:42.077Z,0.00
2018-02-21T06:29:42.630Z,5.63
2018-02-21T06:31:35.494Z,5.63
2018-02-21T06:32:35.478Z,5.63
2018-02-21T06:34:29.910Z,5.63
2018-02-21T06:35:30.421Z,5.63
2018-02-21T06:37:24.322Z,5.63
2018-02-21T06:38:24.305Z,11.25
2018-02-21T06:40:18.776Z,11.25
2018-02-21T06:41:18.734Z,11.25
2018-02-21T06:43:12.683Z,11.25
2018-02-21T06:44:12.146Z,11.25
2018-02-21T06:46:06.517Z,16.88
2018-02-21T06:47:05.555Z,16.88
2018-02-21T06:49:00.001Z,16.88
2018-02-21T06:49:59.962Z,16.88
2018-02-21T06:51:53.951Z,22.50
2018-02-21T06:52:53.380Z,22.50
2018-02-21T06:54:49.328Z,22.50
2018-02-21T06:55:47.784Z,22.50
2018-02-21T06:57:42.736Z,22.50
2018-02-21T06:58:42.741Z,28.13
2018-02-21T07:00:35.658Z,28.13
2018-02-21T07:01:35.616Z,28.13
2018-02-21T07:03:29.056Z,33.75
2018-02-21T07:04:29.034Z,33.75
2018-02-21T07:06:23.451Z,39.38
2018-02-21T07:07:23.444Z,39.38
2018-02-21T07:09:18.384Z,45.00
2018-02-21T07:10:18.815Z,45.00
2018-02-21T07:12:11.601Z,50.63
2018-02-21T07:14:26.010Z,50.63
2018-02-21T07:15:26.081Z,56.25
2018-02-21T07:17:19.450Z,56.25
2018-02-21T07:18:19.420Z,56.25
2018-02-21T07:20:13.850Z,61.88
2018-02-21T07:21:13.840Z,61.88
2018-02-21T07:23:07.771Z,61.88
2018-02-21T07:24:07.772Z,61.88
2018-02-21T07:26:01.665Z,67.50
2018-02-21T07:27:01.651Z,67.50
2018-02-21T07:28:55.105Z,67.50
2018-02-21T07:29:55.055Z,67.50
2018-02-21T07:31:48.475Z,73.13
2018-02-21T07:32:48.473Z,73.13
2018-02-21T07:34:41.947Z,78.75
2018-02-21T07:35:41.894Z,78.75
2018-02-21T07:37:35.299Z,78.75
2018-02-21T07:38:35.297Z,78.75
2018-02-21T07:40:31.180Z,84.38
2018-02-21T07:41:29.730Z,84.38
2018-02-21T07:43:24.124Z,84.38
2018-02-21T07:44:24.664Z,84.38
2018-02-21T07:46:17.575Z,90.00
2018-02-21T07:47:18.074Z,90.00
2018-02-21T07:49:12.011Z,90.00
2018-02-21T07:50:11.976Z,90.00
2018-02-21T07:52:06.928Z,90.00
2018-02-21T07:53:06.389Z,95.63
2018-02-21T07:54:59.846Z,95.63
2018-02-21T07:55:59.843Z,95.63
2018-02-21T07:57:53.215Z,95.63
2018-02-21T07:58:53.205Z,101.25
2018-02-21T08:00:48.156Z,101.25
2018-02-21T08:01:47.621Z,101.25
2018-02-21T08:03:41.065Z,101.25
2018-02-21T08:04:41.072Z,101.25
2018-02-21T08:06:35.525Z,101.25
2018-02-21T08:07:35.466Z,101.25
2018-02-21T08:09:29.414Z,101.25
2018-02-21T08:10:29.463Z,101.25
2018-02-21T08:12:23.295Z,106.88
2018-02-21T08:13:23.315Z,106.88
2018-02-21T08:15:17.719Z,106.88
2018-02-21T08:16:16.717Z,106.88
2018-02-21T08:18:11.125Z,106.88
2018-02-21T08:19:11.097Z,106.88
2018-02-21T08:21:05.509Z,112.50
2018-02-21T08:22:06.028Z,112.50
2018-02-21T08:23:59.962Z,112.50
2018-02-21T08:24:59.926Z,112.50
2018-02-21T08:26:53.889Z,112.50
2018-02-21T08:27:53.353Z,118.13
2018-02-21T08:29:47.807Z,118.13
2018-02-21T08:30:46.759Z,118.13
2018-02-21T08:32:41.218Z,118.13
2018-02-21T08:33:41.208Z,123.75
2018-02-21T08:35:36.132Z,123.75
2018-02-21T08:36:35.635Z,123.75
2018-02-21T08:38:29.991Z,129.38
2018-02-21T08:39:29.981Z,129.38
2018-02-21T08:41:23.399Z,135.00
2018-02-21T08:42:23.402Z,129.38
2018-02-21T08:44:16.872Z,129.38
2018-02-21T08:45:16.831Z,129.38
2018-02-21T08:47:11.253Z,129.38
2018-02-21T08:48:11.237Z,129.38
2018-02-21T08:50:06.180Z,129.38
2018-02-21T08:51:05.666Z,129.38
2018-02-21T08:53:01.094Z,129.38
2018-02-21T08:54:00.093Z,135.00
2018-02-21T08:55:54.496Z,129.38
2018-02-21T08:56:54.497Z,135.00
2018-02-21T08:58:47.935Z,140.63
2018-02-21T08:59:47.898Z,140.63
2018-02-21T09:01:43.345Z,151.88
2018-02-21T09:02:42.838Z,151.88
2018-02-21T09:04:37.787Z,157.50
2018-02-21T09:05:36.780Z,151.88
2018-02-21T09:07:31.725Z,146.25
2018-02-21T09:08:30.180Z,140.63
2018-02-21T09:10:23.622Z,135.00
2018-02-21T09:11:23.608Z,135.00
2018-02-21T09:13:18.050Z,135.00
2018-02-21T09:14:18.044Z,135.00
2018-02-21T09:16:11.464Z,135.00
2018-02-21T09:17:11.456Z,135.00
2018-02-21T09:19:04.879Z,135.00
2018-02-21T09:20:04.870Z,135.00
2018-02-21T09:21:58.810Z,140.63
2018-02-21T09:22:58.298Z,140.63
2018-02-21T09:24:51.722Z,151.88
2018-02-21T09:25:52.232Z,157.50
2018-02-21T09:27:46.164Z,146.25
2018-02-21T09:28:46.140Z,140.63
2018-02-21T09:30:41.085Z,135.00
2018-02-21T09:31:40.562Z,129.38
2018-02-21T09:33:34.034Z,129.38
2018-02-21T09:34:33.990Z,140.63
2018-02-21T09:36:28.437Z,135.00
2018-02-21T09:37:28.406Z,135.00
2018-02-21T09:39:23.348Z,140.63
2018-02-21T09:40:22.828Z,140.63
2018-02-21T09:42:16.239Z,135.00
2018-02-21T09:43:16.247Z,135.00
2018-02-21T09:45:10.700Z,135.00
2018-02-21T09:46:11.182Z,135.00
2018-02-21T09:48:05.037Z,135.00
2018-02-21T09:49:05.045Z,135.00
2018-02-21T09:50:59.487Z,135.00
2018-02-21T09:51:59.472Z,135.00
2018-02-21T09:53:52.880Z,135.00
2018-02-21T09:54:52.877Z,135.00
2018-02-21T09:56:46.333Z,135.00
2018-02-21T09:57:46.322Z,135.00
2018-02-21T09:59:41.246Z,129.38
2018-02-21T10:00:40.716Z,135.00
2018-02-21T10:02:35.179Z,135.00
2018-02-21T10:03:34.133Z,140.63
2018-02-21T10:05:28.602Z,140.63
2018-02-21T10:06:28.552Z,140.63
2018-02-21T10:08:24.998Z,140.63
2018-02-21T10:09:24.435Z,140.63
2018-02-21T10:11:18.883Z,135.00
2018-02-21T10:12:17.856Z,140.63
2018-02-21T10:14:11.797Z,140.63
2018-02-21T10:15:11.803Z,140.63
2018-02-21T10:17:05.708Z,135.00
2018-02-21T10:18:05.684Z,135.00
2018-02-21T10:19:59.122Z,135.00
2018-02-21T10:20:59.134Z,140.63
2018-02-21T10:22:54.070Z,140.63
2018-02-21T10:23:55.061Z,140.63
2018-02-21T10:25:48.002Z,135.00
2018-02-21T10:26:47.954Z,135.00
2018-02-21T10:28:41.902Z,135.00
2018-02-21T10:29:41.364Z,140.63
2018-02-21T10:31:36.310Z,135.00
2018-02-21T10:32:35.835Z,135.00
2018-02-21T10:34:29.188Z,135.00
2018-02-21T10:35:29.200Z,135.00
2018-02-21T10:37:24.142Z,135.00
2018-02-21T10:38:23.616Z,135.00
2018-02-21T10:40:17.040Z,135.00
2018-02-21T10:41:17.579Z,140.63
2018-02-21T10:43:11.462Z,140.63
2018-02-21T10:44:11.443Z,140.63
2018-02-21T10:46:06.392Z,140.63
2018-02-21T10:47:05.862Z,140.63
2018-02-21T10:49:00.292Z,140.63
2018-02-21T10:50:00.278Z,140.63
2018-02-21T10:51:54.683Z,140.63
2018-02-21T10:52:54.685Z,140.63
2018-02-21T10:54:48.140Z,140.63
2018-02-21T10:55:48.118Z,140.63
2018-02-21T10:57:42.580Z,140.63
2018-02-21T10:58:42.580Z,140.63
2018-02-21T11:00:36.962Z,140.63
2018-02-21T11:01:36.967Z,140.63
2018-02-21T11:03:31.417Z,140.63
2018-02-21T11:04:31.920Z,140.63
2018-02-21T11:06:24.826Z,140.63
2018-02-21T11:07:24.814Z,140.63
2018-02-21T11:09:18.250Z,140.63
2018-02-21T11:10:18.752Z,140.63
2018-02-21T11:12:12.673Z,140.63
2018-02-21T11:13:12.663Z,140.63
2018-02-21T11:15:08.100Z,140.63
2018-02-21T11:16:07.185Z,135.00
2018-02-21T11:18:01.523Z,140.63
2018-02-21T11:19:02.050Z,140.63
2018-02-21T11:20:54.914Z,140.63
2018-02-21T11:21:55.435Z,140.63
2018-02-21T11:23:48.348Z,140.63
2018-02-21T11:24:48.351Z,140.63
2018-02-21T11:26:43.261Z,140.63
2018-02-21T11:27:42.732Z,140.63
2018-02-21T11:29:37.195Z,140.63
2018-02-21T11:30:37.681Z,140.63
2018-02-21T11:32:30.584Z,140.63
2018-02-21T11:33:30.586Z,140.63
2018-02-21T11:35:25.059Z,140.63
2018-02-21T11:36:25.010Z,140.63
2018-02-21T11:38:20.384Z,140.63
2018-02-21T11:39:19.402Z,140.63
2018-02-21T11:41:13.349Z,140.63
2018-02-21T11:42:12.838Z,140.63
2018-02-21T11:44:07.773Z,146.25
2018-02-21T11:45:07.287Z,146.25
2018-02-21T11:47:01.653Z,146.25
2018-02-21T11:48:02.609Z,146.25
2018-02-21T11:49:55.602Z,140.63
2018-02-21T11:50:55.089Z,140.63
2018-02-21T11:52:48.504Z,140.63
2018-02-21T11:53:48.502Z,140.63
2018-02-21T11:55:43.450Z,140.63
2018-02-21T11:56:43.446Z,140.63
2018-02-21T11:58:37.866Z,140.63
2018-02-21T11:59:37.321Z,140.63
2018-02-21T12:01:32.769Z,140.63
2018-02-21T12:02:32.278Z,140.63
2018-02-21T12:04:25.174Z,140.63
2018-02-21T12:05:25.682Z,140.63
2018-02-21T12:07:19.526Z,140.63
2018-02-21T12:08:18.577Z,140.63
2018-02-21T12:10:13.011Z,135.00
2018-02-21T12:11:12.995Z,135.00
2018-02-21T12:13:07.423Z,135.00
2018-02-21T12:14:07.426Z,135.00
2018-02-21T12:16:01.890Z,135.00
2018-02-21T12:17:01.855Z,135.00
2018-02-21T12:18:56.297Z,135.00
2018-02-21T12:19:55.282Z,135.00
2018-02-21T12:21:48.732Z,135.00
2018-02-21T12:22:48.709Z,135.00
2018-02-21T12:24:42.158Z,135.00
2018-02-21T12:25:42.148Z,135.00
2018-02-21T12:27:35.122Z,135.00
2018-02-21T12:28:35.109Z,135.00
2018-02-21T12:30:28.593Z,135.00
2018-02-21T12:31:28.577Z,129.38
2018-02-21T12:33:23.031Z,135.00
2018-02-21T12:34:23.003Z,129.38
2018-02-21T12:36:16.953Z,129.38
2018-02-21T12:37:16.420Z,129.38
2018-02-21T12:39:11.366Z,129.38
2018-02-21T12:40:11.370Z,129.38
2018-02-21T12:42:04.316Z,129.38
2018-02-21T12:43:04.295Z,129.38
2018-02-21T12:44:57.721Z,135.00
2018-02-21T12:45:57.710Z,135.00
2018-02-21T12:47:52.171Z,135.00
2018-02-21T12:48:52.667Z,135.00
2018-02-21T12:50:45.604Z,129.38
2018-02-21T12:51:45.588Z,129.38
2018-02-21T12:53:40.039Z,129.38
2018-02-21T12:54:40.552Z,129.38
2018-02-21T12:56:34.986Z,129.38
2018-02-21T12:57:34.462Z,129.38
2018-02-21T12:59:30.410Z,129.38
2018-02-21T13:00:29.904Z,129.38
2018-02-21T13:02:24.308Z,129.38
2018-02-21T13:03:24.307Z,129.38
2018-02-21T13:05:18.722Z,129.38
2018-02-21T13:06:18.725Z,129.38
2018-02-21T13:08:13.141Z,129.38
2018-02-21T13:09:13.128Z,129.38
2018-02-21T13:11:07.584Z,129.38
2018-02-21T13:12:07.574Z,129.38
2018-02-21T13:14:02.019Z,129.38
2018-02-21T13:15:01.002Z,129.38
2018-02-21T13:16:55.438Z,129.38
2018-02-21T13:17:55.424Z,129.38
2018-02-21T13:19:51.377Z,129.38
2018-02-21T13:20:49.846Z,129.38
2018-02-21T13:22:44.295Z,129.38
2018-02-21T13:23:44.259Z,129.38
2018-02-21T13:25:39.206Z,129.38
2018-02-21T13:26:38.685Z,129.38
2018-02-21T13:28:33.637Z,129.38
2018-02-21T13:29:33.081Z,129.38
2018-02-21T13:31:26.535Z,129.38
2018-02-21T13:32:28.030Z,129.38
2018-02-21T13:34:19.938Z,129.38
2018-02-21T13:35:19.941Z,129.38
2018-02-21T13:37:14.350Z,129.38
2018-02-21T13:38:14.351Z,129.38
2018-02-21T13:40:09.299Z,123.75
2018-02-21T13:41:08.765Z,123.75
2018-02-21T13:43:04.225Z,123.75
2018-02-21T13:44:03.219Z,123.75
2018-02-21T13:45:56.668Z,123.75
2018-02-21T13:46:56.617Z,123.75
2018-02-21T13:48:51.080Z,123.75
2018-02-21T13:49:51.565Z,123.75
2018-02-21T13:51:45.508Z,123.75
2018-02-21T13:52:45.986Z,123.75
2018-02-21T13:54:39.896Z,123.75
2018-02-21T13:55:40.394Z,123.75
2018-02-21T13:57:33.302Z,123.75
2018-02-21T13:58:33.296Z,123.75
2018-02-21T14:00:26.735Z,123.75
2018-02-21T14:01:26.721Z,123.75
2018-02-21T14:03:21.143Z,123.75
2018-02-21T14:04:21.686Z,123.75
2018-02-21T14:06:15.575Z,118.13
2018-02-21T14:07:15.570Z,118.13
2018-02-21T14:09:09.011Z,118.13
2018-02-21T14:10:09.526Z,118.13
2018-02-21T14:12:03.943Z,118.13
2018-02-21T14:13:03.432Z,112.50
2018-02-21T14:14:57.377Z,112.50
2018-02-21T14:15:56.873Z,112.50
2018-02-21T14:17:50.326Z,112.50
2018-02-21T14:18:50.302Z,112.50
2018-02-21T14:20:45.240Z,112.50
2018-02-21T14:21:44.721Z,112.50
2018-02-21T14:23:40.668Z,112.50
2018-02-21T14:24:39.677Z,112.50
2018-02-21T14:26:33.590Z,112.50
2018-02-21T14:27:33.577Z,112.50
2018-02-21T14:29:28.005Z,112.50
2018-02-21T14:30:28.005Z,112.50
2018-02-21T14:32:23.456Z,112.50
2018-02-21T14:33:22.441Z,112.50
2018-02-21T14:35:16.874Z,112.50
2018-02-21T14:36:16.862Z,112.50
2018-02-21T14:38:11.310Z,112.50
2018-02-21T14:39:11.276Z,112.50
2018-02-21T14:41:05.722Z,112.50
2018-02-21T14:42:05.709Z,112.50
2018-02-21T14:43:59.168Z,106.88
2018-02-21T14:45:00.150Z,106.88
2018-02-21T14:46:54.163Z,106.88
2018-02-21T14:47:54.100Z,106.88
2018-02-21T14:49:48.004Z,106.88
2018-02-21T14:50:48.006Z,106.88
2018-02-21T14:52:42.436Z,106.88
2018-02-21T14:53:42.425Z,106.88
2018-02-21T14:55:37.874Z,106.88
2018-02-21T14:56:36.861Z,106.88
2018-02-21T14:58:31.781Z,106.88
2018-02-21T14:59:31.261Z,106.88
2018-02-21T15:01:25.692Z,101.25
2018-02-21T15:02:25.696Z,101.25
2018-02-21T15:04:19.113Z,101.25
2018-02-21T15:05:19.107Z,101.25
2018-02-21T15:07:14.064Z,101.25
2018-02-21T15:08:12.539Z,101.25
2018-02-21T15:10:05.988Z,101.25
2018-02-21T15:11:05.944Z,101.25
2018-02-21T15:12:59.422Z,101.25
2018-02-21T15:13:59.376Z,95.63
2018-02-21T15:15:53.315Z,95.63
2018-02-21T15:16:53.329Z,95.63
2018-02-21T15:18:48.669Z,95.63
2018-02-21T15:19:47.194Z,95.63
2018-02-21T15:21:40.618Z,95.63
2018-02-21T15:22:40.636Z,95.63
2018-02-21T15:24:34.100Z,90.00
2018-02-21T15:25:34.071Z,90.00
2018-02-21T15:27:29.005Z,90.00
2018-02-21T15:28:28.483Z,90.00
2018-02-21T15:30:22.872Z,90.00
2018-02-21T15:31:21.939Z,90.00
2018-02-21T15:33:16.370Z,90.00
2018-02-21T15:34:16.864Z,84.38
2018-02-21T15:36:10.817Z,84.38
2018-02-21T15:37:10.768Z,84.38
2018-02-21T15:39:04.196Z,84.38
2018-02-21T15:40:04.717Z,84.38
2018-02-21T15:41:59.639Z,78.75
2018-02-21T15:42:59.649Z,78.75
2018-02-21T15:44:52.087Z,78.75
2018-02-21T15:45:52.596Z,78.75
2018-02-21T15:47:47.037Z,78.75
2018-02-21T15:48:46.522Z,78.75
2018-02-21T15:50:40.961Z,73.13
2018-02-21T15:51:40.961Z,73.13
2018-02-21T15:53:34.393Z,73.13
2018-02-21T15:54:34.908Z,73.13
2018-02-21T15:56:27.819Z,73.13
2018-02-21T15:57:27.832Z,73.13
2018-02-21T15:59:22.775Z,67.50
2018-02-21T16:00:22.244Z,67.50
2018-02-21T16:02:15.684Z,67.50
2018-02-21T16:03:15.659Z,67.50
2018-02-21T16:05:10.101Z,61.88
2018-02-21T16:06:10.096Z,61.88
2018-02-21T16:08:05.014Z,61.88
2018-02-21T16:09:04.470Z,61.88
2018-02-21T16:11:00.421Z,56.25
2018-02-21T16:11:59.422Z,56.25
2018-02-21T16:13:53.335Z,56.25
2018-02-21T16:14:53.839Z,56.25
2018-02-21T16:16:47.785Z,50.63
2018-02-21T16:17:46.794Z,50.63
2018-02-21T16:19:40.732Z,50.63
2018-02-21T16:20:40.739Z,45.00
2018-02-21T16:22:35.654Z,45.00
2018-02-21T16:23:34.650Z,45.00
2018-02-21T16:25:30.559Z,39.38
2018-02-21T16:26:31.113Z,39.38
2018-02-21T16:28:23.963Z,39.38
2018-02-21T16:29:24.536Z,39.38
2018-02-21T16:31:17.380Z,33.75
2018-02-21T16:32:17.376Z,33.75
2018-02-21T16:34:12.822Z,33.75
2018-02-21T16:35:12.328Z,28.13
2018-02-21T16:37:06.745Z,28.13
2018-02-21T16:38:06.271Z,28.13
2018-02-21T16:40:00.183Z,22.50
2018-02-21T16:40:59.672Z,22.50
2018-02-21T16:42:54.606Z,22.50
2018-02-21T16:43:54.078Z,22.50
2018-02-21T16:45:48.516Z,16.88
2018-02-21T16:46:49.035Z,16.88
2018-02-21T16:48:43.479Z,16.88
2018-02-21T16:49:42.896Z,11.25
2018-02-21T16:51:37.365Z,11.25
2018-02-21T16:52:37.329Z,11.25
2018-02-21T16:54:32.292Z,11.25
2018-02-21T16:55:31.798Z,5.63
2018-02-21T16:57:26.257Z,5.63
2018-02-21T16:58:26.214Z,5.63
2018-02-21T17:00:20.650Z,5.63
2018-02-21T17:01:20.668Z,5.63
2018-02-21T17:03:15.041Z,5.63
2018-02-21T17:04:15.042Z,0.00
2018-02-21T17:06:09.995Z,0.00
2018-02-21T17:07:09.473Z,0.00
2018-02-21T17:09:02.910Z,0.00
2018-02-21T17:10:02.874Z,0.00
2018-02-21T17:11:57.318Z,0.00
2018-02-21T17:12:57.315Z,0.00
2018-02-21T17:14:51.741Z,0.00
2018-02-21T17:15:51.732Z,0.00
2018-02-21T17:17:45.141Z,0.00
2018-02-21T17:18:45.145Z,0.00
2018-02-21T17:20:39.613Z,0.00
2018-02-21T17:21:40.114Z,0.00
2018-02-21T17:23:33.015Z,0.00
2018-02-21T17:24:33.010Z,0.00
2018-02-21T17:26:27.950Z,0.00
2018-02-21T17:27:27.940Z,0.00
2018-02-21T17:29:21.870Z,0.00
2018-02-21T17:30:22.351Z,0.00
2018-02-21T17:32:17.320Z,0.00
2018-02-21T17:33:16.281Z,0.00
2018-02-21T17:35:11.246Z,0.00
2018-02-21T17:36:10.712Z,0.00
2018-02-21T17:38:05.183Z,0.00
2018-02-21T17:39:05.107Z,0.00
2018-02-21T17:40:59.043Z,0.00
2018-02-21T17:41:59.065Z,0.00
2018-02-21T17:43:52.956Z,0.00
2018-02-21T17:44:53.470Z,0.00
2018-02-21T17:46:47.380Z,0.00
2018-02-21T17:47:47.367Z,0.00
2018-02-21T17:49:40.806Z,0.00
2018-02-21T17:50:40.818Z,0.00
2018-02-21T17:52:35.231Z,0.00
2018-02-21T17:53:35.230Z,0.00
2018-02-21T17:55:31.143Z,0.00
2018-02-21T17:56:31.124Z,0.00
2018-02-21T17:58:24.604Z,0.00
2018-02-21T17:59:24.531Z,0.00
2018-02-21T18:01:19.468Z,0.00
2018-02-21T18:02:19.779Z,0.00
2018-02-21T18:04:13.404Z,0.00
2018-02-21T18:05:13.361Z,0.00
2018-02-21T18:07:10.320Z,0.00
2018-02-21T18:08:09.849Z,0.00
2018-02-21T18:10:04.786Z,0.00
2018-02-21T18:11:04.265Z,0.00
2018-02-21T18:12:58.686Z,0.00
2018-02-21T18:13:58.680Z,0.00
2018-02-21T18:15:53.613Z,0.00
2018-02-21T18:18:07.506Z,0.00
2018-02-21T18:19:08.069Z,0.00
2018-02-21T18:21:02.433Z,0.00
2018-02-21T18:22:01.905Z,0.00
2018-02-21T18:23:56.335Z,0.00
2018-02-21T18:24:56.316Z,0.00
2018-02-21T18:26:52.762Z,0.00
2018-02-21T18:27:52.258Z,0.00
2018-02-21T18:29:49.712Z,0.00
2018-02-21T18:30:47.212Z,0.00
2018-02-21T18:32:42.590Z,0.00
2018-02-21T18:33:42.587Z,0.00
2018-02-21T18:35:37.015Z,0.00
2018-02-21T18:36:37.013Z,0.00
2018-02-21T18:38:31.439Z,0.00
2018-02-21T18:39:31.414Z,0.00
2018-02-21T18:41:24.824Z,0.00
2018-02-21T18:42:25.350Z,0.00
2018-02-21T18:44:19.783Z,0.00
2018-02-21T18:45:19.238Z,0.00